LXP285 SCTE-SCBA
Flight info
| Callsign | LXP285 |
|---|---|
| Flight time | 0h 44m |
| Altitude | 31000 |
| Route | GUTIN4C GUTIN UT102 UDOVI UDOVI4C |
| Aircraft | A321/M-SDE3FGHIRWY/LB1 |
Departure
| Time | 2026-05-05 23:01 |
|---|---|
| Airport | El Tepual International Airport (SCTE) |
Arrival
| Time | 2026-05-05 23:45 |
|---|---|
| Airport | Balmaceda Airport (SCBA) |
| Time | Latitude | Longitude | Altitude | Speed | Heading |
|---|---|---|---|---|---|
| 2026-05-05 22:58 | -41.42711 | -73.09491 | 304 ft | 0 kts | 92° |
| 2026-05-05 22:58 | -41.42711 | -73.09486 | 305 ft | 3 kts | 92° |
| 2026-05-05 22:59 | -41.42713 | -73.09413 | 305 ft | 12 kts | 92° |
| 2026-05-05 22:59 | -41.42731 | -73.09355 | 306 ft | 5 kts | 171° |
| 2026-05-05 22:59 | -41.42744 | -73.09356 | 306 ft | 0 kts | 181° |
| 2026-05-05 23:00 | -41.42752 | -73.09356 | 308 ft | 11 kts | 181° |
| 2026-05-05 23:00 | -41.43090 | -73.09368 | 306 ft | 83 kts | 181° |
| 2026-05-05 23:01 | -41.43875 | -73.09395 | 296 ft | 140 kts | 181° |
| 2026-05-05 23:01 | -41.44960 | -73.09431 | 593 ft | 156 kts | 182° |
| 2026-05-05 23:01 | -41.46018 | -73.09394 | 1178 ft | 154 kts | 173° |
| 2026-05-05 23:01 | -41.47133 | -73.09083 | 1383 ft | 174 kts | 168° |
| 2026-05-05 23:02 | -41.48379 | -73.08667 | 1573 ft | 195 kts | 167° |
| 2026-05-05 23:02 | -41.49765 | -73.08197 | 1725 ft | 216 kts | 168° |
| 2026-05-05 23:02 | -41.51298 | -73.07685 | 1863 ft | 238 kts | 168° |
| 2026-05-05 23:02 | -41.52988 | -73.07131 | 2165 ft | 259 kts | 169° |
| 2026-05-05 23:03 | -41.54765 | -73.06557 | 2865 ft | 266 kts | 169° |
| 2026-05-05 23:03 | -41.56577 | -73.05978 | 3640 ft | 270 kts | 169° |
| 2026-05-05 23:03 | -41.58416 | -73.05394 | 4481 ft | 273 kts | 170° |
| 2026-05-05 23:03 | -41.60280 | -73.04801 | 5158 ft | 278 kts | 170° |
| 2026-05-05 23:04 | -41.62176 | -73.04194 | 5911 ft | 282 kts | 170° |
| 2026-05-05 23:04 | -41.64100 | -73.03583 | 6616 ft | 286 kts | 171° |
| 2026-05-05 23:04 | -41.66057 | -73.02968 | 7310 ft | 291 kts | 171° |
| 2026-05-05 23:04 | -41.68043 | -73.02345 | 8007 ft | 295 kts | 171° |
| 2026-05-05 23:05 | -41.70055 | -73.01714 | 8697 ft | 300 kts | 171° |
| 2026-05-05 23:05 | -41.72101 | -73.01068 | 9384 ft | 304 kts | 171° |
| 2026-05-05 23:05 | -41.74172 | -73.00410 | 10033 ft | 308 kts | 172° |
| 2026-05-05 23:05 | -41.76306 | -72.99737 | 10375 ft | 325 kts | 172° |
| 2026-05-05 23:06 | -41.78556 | -72.99076 | 10504 ft | 346 kts | 173° |
| 2026-05-05 23:06 | -41.80987 | -72.98395 | 10632 ft | 367 kts | 173° |
| 2026-05-05 23:06 | -41.83550 | -72.97684 | 10753 ft | 386 kts | 173° |
| 2026-05-05 23:06 | -41.86206 | -72.96941 | 11191 ft | 393 kts | 173° |
| 2026-05-05 23:07 | -41.88897 | -72.96181 | 11813 ft | 396 kts | 173° |
| 2026-05-05 23:07 | -41.91605 | -72.95409 | 12444 ft | 399 kts | 173° |
| 2026-05-05 23:07 | -41.94326 | -72.94627 | 13061 ft | 402 kts | 173° |
| 2026-05-05 23:07 | -41.97071 | -72.93837 | 13663 ft | 404 kts | 174° |
| 2026-05-05 23:08 | -41.99833 | -72.93044 | 14173 ft | 407 kts | 174° |
| 2026-05-05 23:08 | -42.02613 | -72.92244 | 14673 ft | 410 kts | 174° |
| 2026-05-05 23:08 | -42.05416 | -72.91436 | 15173 ft | 413 kts | 174° |
| 2026-05-05 23:08 | -42.08238 | -72.90625 | 15661 ft | 416 kts | 175° |
| 2026-05-05 23:09 | -42.11082 | -72.89810 | 16153 ft | 419 kts | 175° |
| 2026-05-05 23:09 | -42.13942 | -72.88989 | 16647 ft | 422 kts | 175° |
| 2026-05-05 23:09 | -42.16833 | -72.88159 | 17125 ft | 425 kts | 175° |
| 2026-05-05 23:09 | -42.19734 | -72.87325 | 17595 ft | 428 kts | 175° |
| 2026-05-05 23:10 | -42.22660 | -72.86480 | 18082 ft | 431 kts | 175° |
| 2026-05-05 23:10 | -42.25563 | -72.85640 | 18493 ft | 433 kts | 176° |
| 2026-05-05 23:10 | -42.28560 | -72.84772 | 18896 ft | 436 kts | 176° |
| 2026-05-05 23:10 | -42.31501 | -72.83920 | 19273 ft | 439 kts | 176° |
| 2026-05-05 23:11 | -42.34500 | -72.83051 | 19670 ft | 442 kts | 176° |
| 2026-05-05 23:11 | -42.37522 | -72.82176 | 20056 ft | 445 kts | 176° |
| 2026-05-05 23:11 | -42.40564 | -72.81295 | 20430 ft | 449 kts | 176° |
| 2026-05-05 23:11 | -42.43618 | -72.80404 | 20811 ft | 452 kts | 176° |
| 2026-05-05 23:12 | -42.46712 | -72.79480 | 21187 ft | 455 kts | 176° |
| 2026-05-05 23:12 | -42.49814 | -72.78537 | 21561 ft | 459 kts | 176° |
| 2026-05-05 23:12 | -42.52940 | -72.77584 | 21935 ft | 462 kts | 176° |
| 2026-05-05 23:12 | -42.56082 | -72.76628 | 22326 ft | 465 kts | 176° |
| 2026-05-05 23:13 | -42.59247 | -72.75666 | 22726 ft | 468 kts | 176° |
| 2026-05-05 23:13 | -42.62443 | -72.74699 | 23091 ft | 472 kts | 177° |
| 2026-05-05 23:13 | -42.65656 | -72.73729 | 23412 ft | 475 kts | 177° |
| 2026-05-05 23:13 | -42.68893 | -72.72750 | 23719 ft | 478 kts | 177° |
| 2026-05-05 23:14 | -42.72144 | -72.71757 | 24023 ft | 480 kts | 177° |
| 2026-05-05 23:14 | -42.75411 | -72.70754 | 24337 ft | 483 kts | 177° |
| 2026-05-05 23:14 | -42.78697 | -72.69746 | 24640 ft | 485 kts | 177° |
| 2026-05-05 23:14 | -42.82000 | -72.68734 | 24912 ft | 488 kts | 178° |
| 2026-05-05 23:15 | -42.85320 | -72.67720 | 25247 ft | 490 kts | 178° |
| 2026-05-05 23:15 | -42.88606 | -72.66717 | 25542 ft | 492 kts | 178° |
| 2026-05-05 23:15 | -42.91954 | -72.65698 | 25853 ft | 494 kts | 178° |
| 2026-05-05 23:15 | -42.95312 | -72.64679 | 26138 ft | 495 kts | 178° |
| 2026-05-05 23:16 | -42.98680 | -72.63654 | 26440 ft | 496 kts | 178° |
| 2026-05-05 23:16 | -43.02047 | -72.62623 | 26850 ft | 495 kts | 178° |
| 2026-05-05 23:16 | -43.05404 | -72.61589 | 27278 ft | 494 kts | 178° |
| 2026-05-05 23:16 | -43.08752 | -72.60556 | 27693 ft | 493 kts | 178° |
| 2026-05-05 23:17 | -43.12091 | -72.59525 | 28125 ft | 491 kts | 179° |
| 2026-05-05 23:17 | -43.15422 | -72.58495 | 28458 ft | 489 kts | 179° |
| 2026-05-05 23:17 | -43.18745 | -72.57462 | 28698 ft | 490 kts | 179° |
| 2026-05-05 23:17 | -43.22065 | -72.56429 | 29016 ft | 489 kts | 179° |
| 2026-05-05 23:18 | -43.25374 | -72.55404 | 29405 ft | 488 kts | 179° |
| 2026-05-05 23:18 | -43.28684 | -72.54380 | 29797 ft | 487 kts | 179° |
| 2026-05-05 23:18 | -43.31990 | -72.53357 | 30181 ft | 486 kts | 179° |
| 2026-05-05 23:18 | -43.35282 | -72.52340 | 30530 ft | 485 kts | 180° |
| 2026-05-05 23:19 | -43.38571 | -72.51322 | 30806 ft | 485 kts | 180° |
| 2026-05-05 23:19 | -43.41855 | -72.50305 | 30873 ft | 482 kts | 180° |
| 2026-05-05 23:19 | -43.48384 | -72.48264 | 30886 ft | 480 kts | 180° |
| 2026-05-05 23:20 | -43.54877 | -72.46231 | 30897 ft | 478 kts | 180° |
| 2026-05-05 23:20 | -43.61381 | -72.44203 | 30896 ft | 479 kts | 180° |
| 2026-05-05 23:21 | -43.64588 | -72.43208 | 30767 ft | 478 kts | 171° |
| 2026-05-05 23:21 | -43.67879 | -72.42179 | 30902 ft | 481 kts | 173° |
| 2026-05-05 23:21 | -43.74507 | -72.40105 | 30903 ft | 495 kts | 173° |
| 2026-05-05 23:22 | -43.81258 | -72.37972 | 30898 ft | 498 kts | 173° |
| 2026-05-05 23:22 | -43.87977 | -72.35833 | 30900 ft | 499 kts | 173° |
| 2026-05-05 23:23 | -43.94734 | -72.33683 | 30903 ft | 498 kts | 173° |
| 2026-05-05 23:23 | -44.01497 | -72.31542 | 30914 ft | 498 kts | 173° |
| 2026-05-05 23:24 | -44.08246 | -72.29403 | 30928 ft | 498 kts | 173° |
| 2026-05-05 23:24 | -44.14989 | -72.27248 | 30925 ft | 497 kts | 173° |
| 2026-05-05 23:25 | -44.21717 | -72.25073 | 30929 ft | 496 kts | 173° |
| 2026-05-05 23:25 | -44.28440 | -72.22937 | 30941 ft | 495 kts | 173° |
| 2026-05-05 23:26 | -44.35159 | -72.20795 | 30954 ft | 495 kts | 173° |
| 2026-05-05 23:26 | -44.41813 | -72.18656 | 30949 ft | 493 kts | 172° |
| 2026-05-05 23:27 | -44.48499 | -72.16489 | 30960 ft | 493 kts | 172° |
| 2026-05-05 23:27 | -44.55167 | -72.14321 | 30966 ft | 491 kts | 172° |
| 2026-05-05 23:28 | -44.61822 | -72.12171 | 30970 ft | 490 kts | 172° |
| 2026-05-05 23:28 | -44.68472 | -72.10022 | 30970 ft | 490 kts | 172° |
| 2026-05-05 23:29 | -44.75103 | -72.07855 | 30955 ft | 490 kts | 172° |
| 2026-05-05 23:29 | -44.81744 | -72.05680 | 30951 ft | 490 kts | 172° |
| 2026-05-05 23:30 | -44.87260 | -72.03872 | 30948 ft | 489 kts | 172° |
| 2026-05-05 23:30 | -44.91693 | -72.02423 | 30269 ft | 491 kts | 172° |
| 2026-05-05 23:30 | -44.95008 | -72.01347 | 29079 ft | 498 kts | 171° |
| 2026-05-05 23:31 | -44.98392 | -72.00246 | 27973 ft | 501 kts | 171° |
| 2026-05-05 23:31 | -45.00695 | -71.99491 | 27253 ft | 503 kts | 171° |
| 2026-05-05 23:31 | -45.04068 | -71.98379 | 26193 ft | 505 kts | 171° |
| 2026-05-05 23:31 | -45.08651 | -71.96858 | 24778 ft | 508 kts | 171° |
| 2026-05-05 23:32 | -45.12096 | -71.95713 | 23747 ft | 509 kts | 171° |
| 2026-05-05 23:32 | -45.15527 | -71.94571 | 22947 ft | 503 kts | 171° |
| 2026-05-05 23:32 | -45.18911 | -71.93441 | 22305 ft | 494 kts | 170° |
| 2026-05-05 23:32 | -45.22234 | -71.92340 | 21655 ft | 486 kts | 172° |
| 2026-05-05 23:33 | -45.25540 | -71.91781 | 20989 ft | 473 kts | 182° |
| 2026-05-05 23:33 | -45.28776 | -71.92074 | 20284 ft | 462 kts | 192° |
| 2026-05-05 23:33 | -45.31875 | -71.93061 | 19613 ft | 454 kts | 197° |
| 2026-05-05 23:33 | -45.34921 | -71.94134 | 18941 ft | 449 kts | 196° |
| 2026-05-05 23:34 | -45.37938 | -71.95178 | 18278 ft | 444 kts | 195° |
| 2026-05-05 23:34 | -45.40929 | -71.96201 | 17536 ft | 439 kts | 195° |
| 2026-05-05 23:34 | -45.43885 | -71.97209 | 16836 ft | 434 kts | 195° |
| 2026-05-05 23:34 | -45.46810 | -71.98213 | 16139 ft | 430 kts | 195° |
| 2026-05-05 23:35 | -45.49704 | -71.99218 | 15483 ft | 425 kts | 195° |
| 2026-05-05 23:35 | -45.52511 | -72.00200 | 15307 ft | 409 kts | 195° |
| 2026-05-05 23:35 | -45.55228 | -72.01150 | 15175 ft | 392 kts | 195° |
| 2026-05-05 23:35 | -45.57791 | -72.02047 | 15056 ft | 377 kts | 195° |
| 2026-05-05 23:36 | -45.60294 | -72.02909 | 14928 ft | 364 kts | 193° |
| 2026-05-05 23:36 | -45.62772 | -72.03110 | 14807 ft | 354 kts | 175° |
| 2026-05-05 23:36 | -45.65104 | -72.02204 | 14693 ft | 344 kts | 156° |
| 2026-05-05 23:36 | -45.67069 | -72.00344 | 14549 ft | 335 kts | 137° |
| 2026-05-05 23:37 | -45.68083 | -71.98706 | 14460 ft | 329 kts | 126° |
| 2026-05-05 23:37 | -45.68966 | -71.96882 | 14371 ft | 322 kts | 125° |
| 2026-05-05 23:37 | -45.70438 | -71.93824 | 14043 ft | 317 kts | 126° |
| 2026-05-05 23:37 | -45.71688 | -71.91248 | 13716 ft | 314 kts | 126° |
| 2026-05-05 23:38 | -45.72507 | -71.89562 | 13470 ft | 313 kts | 126° |
| 2026-05-05 23:38 | -45.73643 | -71.87220 | 13103 ft | 309 kts | 126° |
| 2026-05-05 23:38 | -45.74858 | -71.84709 | 12377 ft | 305 kts | 125° |
| 2026-05-05 23:38 | -45.75911 | -71.82081 | 11274 ft | 311 kts | 108° |
| 2026-05-05 23:39 | -45.76436 | -71.79064 | 10426 ft | 306 kts | 98° |
| 2026-05-05 23:39 | -45.76419 | -71.76170 | 10216 ft | 280 kts | 81° |
| 2026-05-05 23:39 | -45.76110 | -71.73466 | 9745 ft | 270 kts | 79° |
| 2026-05-05 23:39 | -45.75776 | -71.70864 | 9226 ft | 261 kts | 79° |
| 2026-05-05 23:40 | -45.75686 | -71.68334 | 8674 ft | 252 kts | 103° |
| 2026-05-05 23:40 | -45.76451 | -71.66134 | 8253 ft | 251 kts | 133° |
| 2026-05-05 23:40 | -45.77879 | -71.64758 | 7893 ft | 250 kts | 162° |
| 2026-05-05 23:40 | -45.79582 | -71.64243 | 7504 ft | 251 kts | 172° |
| 2026-05-05 23:41 | -45.81317 | -71.63998 | 7147 ft | 250 kts | 174° |
| 2026-05-05 23:41 | -45.83013 | -71.63802 | 6919 ft | 237 kts | 173° |
| 2026-05-05 23:41 | -45.84539 | -71.63118 | 6551 ft | 228 kts | 144° |
| 2026-05-05 23:41 | -45.85550 | -71.61437 | 6077 ft | 223 kts | 112° |
| 2026-05-05 23:42 | -45.85905 | -71.59300 | 5669 ft | 220 kts | 100° |
| 2026-05-05 23:42 | -45.86545 | -71.57387 | 5254 ft | 219 kts | 135° |
| 2026-05-05 23:42 | -45.87838 | -71.56263 | 4862 ft | 212 kts | 161° |
| 2026-05-05 23:42 | -45.89248 | -71.55956 | 4453 ft | 207 kts | 182° |
| 2026-05-05 23:43 | -45.90631 | -71.56408 | 4051 ft | 203 kts | 205° |
| 2026-05-05 23:43 | -45.91746 | -71.57584 | 3657 ft | 197 kts | 229° |
| 2026-05-05 23:43 | -45.92393 | -71.59201 | 3273 ft | 178 kts | 252° |
| 2026-05-05 23:43 | -45.92557 | -71.60845 | 2910 ft | 159 kts | 272° |
| 2026-05-05 23:44 | -45.92401 | -71.62349 | 2651 ft | 152 kts | 280° |
| 2026-05-05 23:44 | -45.92222 | -71.63824 | 2320 ft | 150 kts | 278° |
| 2026-05-05 23:44 | -45.92041 | -71.65276 | 2040 ft | 147 kts | 280° |
| 2026-05-05 23:44 | -45.91865 | -71.66713 | 1867 ft | 147 kts | 280° |
| 2026-05-05 23:45 | -45.91690 | -71.68128 | 1740 ft | 135 kts | 279° |
| 2026-05-05 23:45 | -45.91556 | -71.69244 | 1737 ft | 86 kts | 280° |
| 2026-05-05 23:45 | -45.91483 | -71.69833 | 1735 ft | 32 kts | 280° |
| 2026-05-05 23:45 | -45.91455 | -71.70042 | 1736 ft | 12 kts | 285° |
| 2026-05-05 23:46 | -45.91393 | -71.70093 | 1736 ft | 11 kts | 8° |
| 2026-05-05 23:46 | -45.91361 | -71.70085 | 1735 ft | 3 kts | 10° |
| 2026-05-05 23:46 | -45.91342 | -71.70079 | 1733 ft | 4 kts | 11° |
| 2026-05-05 23:46 | -45.91319 | -71.70030 | 1734 ft | 9 kts | 86° |
| 2026-05-05 23:47 | -45.91330 | -71.69937 | 1733 ft | 11 kts | 100° |
| 2026-05-05 23:47 | -45.91345 | -71.69822 | 1736 ft | 13 kts | 100° |
| 2026-05-05 23:47 | -45.91359 | -71.69706 | 1736 ft | 9 kts | 100° |
| 2026-05-05 23:47 | -45.91369 | -71.69627 | 1736 ft | 7 kts | 100° |
| 2026-05-05 23:48 | -45.91378 | -71.69556 | 1734 ft | 8 kts | 100° |
| 2026-05-05 23:48 | -45.91391 | -71.69454 | 1737 ft | 12 kts | 99° |
| 2026-05-05 23:48 | -45.91407 | -71.69327 | 1737 ft | 9 kts | 100° |
| 2026-05-05 23:48 | -45.91407 | -71.69240 | 1735 ft | 9 kts | 60° |
| 2026-05-05 23:49 | -45.91354 | -71.69191 | 1733 ft | 4 kts | 32° |
| 2026-05-05 23:49 | -45.91320 | -71.69175 | 1732 ft | 4 kts | 343° |
| 2026-05-05 23:49 | -45.91314 | -71.69190 | 1735 ft | 3 kts | 298° |
| 2026-05-05 23:49 | -45.91302 | -71.69221 | 1733 ft | 4 kts | 302° |
| 2026-05-05 23:50 | -45.91301 | -71.69223 | 1734 ft | 0 kts | 301° |